sensor_id;sensor_type;location;lat;lon;timestamp;pressure;altitude;pressure_sealevel;temperature;humidity
37200;BME280;23096;50.892;16.746;2024-01-30T00:01:55;100817.05;;;3.00;56.54
37200;BME280;23096;50.892;16.746;2024-01-30T00:04:20;100813.15;;;3.00;56.38
37200;BME280;23096;50.892;16.746;2024-01-30T00:06:46;100814.14;;;2.99;56.37
37200;BME280;23096;50.892;16.746;2024-01-30T00:09:12;100813.79;;;2.98;56.33
37200;BME280;23096;50.892;16.746;2024-01-30T00:11:39;100814.59;;;2.96;56.41
37200;BME280;23096;50.892;16.746;2024-01-30T00:14:08;100816.77;;;2.95;56.47
37200;BME280;23096;50.892;16.746;2024-01-30T00:16:33;100815.38;;;2.95;56.41
37200;BME280;23096;50.892;16.746;2024-01-30T00:18:59;100814.34;;;2.94;56.35
37200;BME280;23096;50.892;16.746;2024-01-30T00:21:30;100815.30;;;2.90;56.45
37200;BME280;23096;50.892;16.746;2024-01-30T00:23:56;100818.61;;;2.86;56.31
37200;BME280;23096;50.892;16.746;2024-01-30T00:26:21;100817.71;;;2.85;56.38
37200;BME280;23096;50.892;16.746;2024-01-30T00:28:47;100818.89;;;2.85;56.40
37200;BME280;23096;50.892;16.746;2024-01-30T00:31:12;100815.63;;;2.83;56.41
37200;BME280;23096;50.892;16.746;2024-01-30T00:33:38;100816.97;;;2.82;56.29
37200;BME280;23096;50.892;16.746;2024-01-30T00:36:09;100820.52;;;2.82;56.34
37200;BME280;23096;50.892;16.746;2024-01-30T00:38:35;100822.56;;;2.82;56.28
37200;BME280;23096;50.892;16.746;2024-01-30T00:41:01;100824.95;;;2.76;56.23
37200;BME280;23096;50.892;16.746;2024-01-30T00:43:30;100822.11;;;2.71;56.19
37200;BME280;23096;50.892;16.746;2024-01-30T00:45:57;100823.77;;;2.69;56.38
37200;BME280;23096;50.892;16.746;2024-01-30T00:48:23;100826.66;;;2.70;56.38
37200;BME280;23096;50.892;16.746;2024-01-30T00:50:48;100824.82;;;2.71;56.38
37200;BME280;23096;50.892;16.746;2024-01-30T00:53:14;100819.40;;;2.71;56.40
37200;BME280;23096;50.892;16.746;2024-01-30T00:55:39;100818.05;;;2.71;56.35
37200;BME280;23096;50.892;16.746;2024-01-30T00:58:05;100820.72;;;2.69;56.47
37200;BME280;23096;50.892;16.746;2024-01-30T01:00:32;100820.89;;;2.69;56.38
37200;BME280;23096;50.892;16.746;2024-01-30T01:02:58;100821.34;;;2.67;56.37
37200;BME280;23096;50.892;16.746;2024-01-30T01:05:24;100816.90;;;2.66;56.31
37200;BME280;23096;50.892;16.746;2024-01-30T01:07:50;100812.48;;;2.66;56.29
37200;BME280;23096;50.892;16.746;2024-01-30T01:10:16;100813.63;;;2.64;56.37
37200;BME280;23096;50.892;16.746;2024-01-30T01:12:43;100811.23;;;2.63;56.31
37200;BME280;23096;50.892;16.746;2024-01-30T01:15:09;100815.12;;;2.63;56.40
37200;BME280;23096;50.892;16.746;2024-01-30T01:17:36;100819.33;;;2.61;56.28
37200;BME280;23096;50.892;16.746;2024-01-30T01:20:02;100819.30;;;2.61;56.34
37200;BME280;23096;50.892;16.746;2024-01-30T01:22:29;100814.13;;;2.58;56.32
37200;BME280;23096;50.892;16.746;2024-01-30T01:24:54;100813.30;;;2.58;56.42
37200;BME280;23096;50.892;16.746;2024-01-30T01:27:20;100812.33;;;2.60;56.41
37200;BME280;23096;50.892;16.746;2024-01-30T01:29:46;100810.29;;;2.59;56.48
37200;BME280;23096;50.892;16.746;2024-01-30T01:32:12;100811.26;;;2.57;56.28
37200;BME280;23096;50.892;16.746;2024-01-30T01:34:37;100810.21;;;2.56;56.29
37200;BME280;23096;50.892;16.746;2024-01-30T01:37:05;100807.33;;;2.56;56.40
37200;BME280;23096;50.892;16.746;2024-01-30T01:39:33;100805.40;;;2.54;56.41
37200;BME280;23096;50.892;16.746;2024-01-30T01:41:58;100805.04;;;2.54;56.39
37200;BME280;23096;50.892;16.746;2024-01-30T01:44:24;100806.02;;;2.52;56.45
37200;BME280;23096;50.892;16.746;2024-01-30T01:46:51;100812.39;;;2.49;56.37
37200;BME280;23096;50.892;16.746;2024-01-30T01:49:18;100808.39;;;2.45;56.41
37200;BME280;23096;50.892;16.746;2024-01-30T01:51:49;100812.02;;;2.42;56.45
37200;BME280;23096;50.892;16.746;2024-01-30T01:54:17;100817.12;;;2.41;56.38
37200;BME280;23096;50.892;16.746;2024-01-30T01:56:43;100817.66;;;2.43;56.41
37200;BME280;23096;50.892;16.746;2024-01-30T01:59:11;100810.18;;;2.43;56.50
37200;BME280;23096;50.892;16.746;2024-01-30T02:01:38;100810.00;;;2.42;56.41
37200;BME280;23096;50.892;16.746;2024-01-30T02:04:09;100815.05;;;2.40;56.46
37200;BME280;23096;50.892;16.746;2024-01-30T02:06:35;100810.20;;;2.36;56.47
37200;BME280;23096;50.892;16.746;2024-01-30T02:09:01;100811.06;;;2.36;56.51
37200;BME280;23096;50.892;16.746;2024-01-30T02:11:28;100806.80;;;2.36;56.55
37200;BME280;23096;50.892;16.746;2024-01-30T02:13:53;100806.61;;;2.35;56.45
37200;BME280;23096;50.892;16.746;2024-01-30T02:16:19;100804.05;;;2.35;56.51
37200;BME280;23096;50.892;16.746;2024-01-30T02:18:44;100806.05;;;2.34;56.43
37200;BME280;23096;50.892;16.746;2024-01-30T02:21:14;100805.09;;;2.29;56.51
37200;BME280;23096;50.892;16.746;2024-01-30T02:23:40;100803.17;;;2.27;56.57
37200;BME280;23096;50.892;16.746;2024-01-30T02:26:07;100796.74;;;2.27;56.51
37200;BME280;23096;50.892;16.746;2024-01-30T02:28:32;100789.30;;;2.28;56.65
37200;BME280;23096;50.892;16.746;2024-01-30T02:30:58;100785.98;;;2.31;56.55
37200;BME280;23096;50.892;16.746;2024-01-30T02:33:23;100783.66;;;2.33;56.70
37200;BME280;23096;50.892;16.746;2024-01-30T02:35:49;100784.52;;;2.34;56.76
37200;BME280;23096;50.892;16.746;2024-01-30T02:38:15;100781.02;;;2.36;56.67
37200;BME280;23096;50.892;16.746;2024-01-30T02:40:41;100779.86;;;2.37;56.69
37200;BME280;23096;50.892;16.746;2024-01-30T02:43:06;100778.05;;;2.39;56.78
37200;BME280;23096;50.892;16.746;2024-01-30T02:45:32;100781.67;;;2.41;56.83
37200;BME280;23096;50.892;16.746;2024-01-30T02:47:57;100786.80;;;2.42;56.78
37200;BME280;23096;50.892;16.746;2024-01-30T02:50:23;100783.59;;;2.43;56.82
37200;BME280;23096;50.892;16.746;2024-01-30T02:52:48;100784.64;;;2.45;56.75
37200;BME280;23096;50.892;16.746;2024-01-30T02:55:14;100785.52;;;2.47;56.82
37200;BME280;23096;50.892;16.746;2024-01-30T02:57:42;100785.73;;;2.48;56.80
37200;BME280;23096;50.892;16.746;2024-01-30T03:00:08;100783.55;;;2.48;56.90
37200;BME280;23096;50.892;16.746;2024-01-30T03:02:35;100788.08;;;2.47;56.74
37200;BME280;23096;50.892;16.746;2024-01-30T03:05:01;100788.04;;;2.45;56.74
37200;BME280;23096;50.892;16.746;2024-01-30T03:07:26;100788.23;;;2.39;56.59
37200;BME280;23096;50.892;16.746;2024-01-30T03:09:52;100788.83;;;2.36;56.68
37200;BME280;23096;50.892;16.746;2024-01-30T03:12:18;100790.52;;;2.36;56.78
37200;BME280;23096;50.892;16.746;2024-01-30T03:14:43;100788.06;;;2.33;56.69
37200;BME280;23096;50.892;16.746;2024-01-30T03:17:09;100786.80;;;2.30;56.59
37200;BME280;23096;50.892;16.746;2024-01-30T03:19:34;100793.88;;;2.28;56.70
37200;BME280;23096;50.892;16.746;2024-01-30T03:22:00;100794.42;;;2.23;56.71
37200;BME280;23096;50.892;16.746;2024-01-30T03:24:26;100793.93;;;2.18;56.74
37200;BME280;23096;50.892;16.746;2024-01-30T03:26:53;100795.95;;;2.17;56.84
37200;BME280;23096;50.892;16.746;2024-01-30T03:29:18;100792.58;;;2.18;56.80
37200;BME280;23096;50.892;16.746;2024-01-30T03:31:44;100791.55;;;2.17;56.78
37200;BME280;23096;50.892;16.746;2024-01-30T03:34:09;100791.48;;;2.16;56.90
37200;BME280;23096;50.892;16.746;2024-01-30T03:36:35;100785.63;;;2.17;56.96
37200;BME280;23096;50.892;16.746;2024-01-30T03:39:01;100783.65;;;2.20;56.89
37200;BME280;23096;50.892;16.746;2024-01-30T03:41:27;100783.19;;;2.22;57.02
37200;BME280;23096;50.892;16.746;2024-01-30T03:43:53;100782.73;;;2.24;57.03
37200;BME280;23096;50.892;16.746;2024-01-30T03:46:18;100781.73;;;2.24;56.98
37200;BME280;23096;50.892;16.746;2024-01-30T03:48:45;100777.98;;;2.24;57.00
37200;BME280;23096;50.892;16.746;2024-01-30T03:51:11;100776.98;;;2.24;57.08
37200;BME280;23096;50.892;16.746;2024-01-30T03:53:44;100772.25;;;2.24;57.15
37200;BME280;23096;50.892;16.746;2024-01-30T03:56:12;100770.05;;;2.25;57.14
37200;BME280;23096;50.892;16.746;2024-01-30T03:58:40;100767.19;;;2.26;57.14
37200;BME280;23096;50.892;16.746;2024-01-30T04:01:07;100769.28;;;2.28;57.26
37200;BME280;23096;50.892;16.746;2024-01-30T04:03:33;100769.50;;;2.30;57.21
37200;BME280;23096;50.892;16.746;2024-01-30T04:05:59;100770.05;;;2.32;57.19
37200;BME280;23096;50.892;16.746;2024-01-30T04:08:24;100768.02;;;2.32;57.14
37200;BME280;23096;50.892;16.746;2024-01-30T04:10:50;100769.59;;;2.34;57.12
37200;BME280;23096;50.892;16.746;2024-01-30T04:13:15;100771.66;;;2.35;57.15
37200;BME280;23096;50.892;16.746;2024-01-30T04:15:41;100764.37;;;2.35;57.21
37200;BME280;23096;50.892;16.746;2024-01-30T04:18:06;100763.73;;;2.37;57.28
37200;BME280;23096;50.892;16.746;2024-01-30T04:20:32;100762.74;;;2.38;57.18
37200;BME280;23096;50.892;16.746;2024-01-30T04:22:57;100760.54;;;2.38;57.23
37200;BME280;23096;50.892;16.746;2024-01-30T04:25:23;100760.05;;;2.39;57.22
37200;BME280;23096;50.892;16.746;2024-01-30T04:27:49;100761.58;;;2.39;57.16
37200;BME280;23096;50.892;16.746;2024-01-30T04:30:14;100765.82;;;2.38;57.03
37200;BME280;23096;50.892;16.746;2024-01-30T04:32:40;100770.88;;;2.37;57.24
37200;BME280;23096;50.892;16.746;2024-01-30T04:35:06;100772.83;;;2.34;57.12
37200;BME280;23096;50.892;16.746;2024-01-30T04:37:32;100773.77;;;2.31;57.09
37200;BME280;23096;50.892;16.746;2024-01-30T04:39:57;100776.44;;;2.30;57.03
37200;BME280;23096;50.892;16.746;2024-01-30T04:42:23;100775.08;;;2.29;57.16
37200;BME280;23096;50.892;16.746;2024-01-30T04:44:49;100776.61;;;2.29;57.15
37200;BME280;23096;50.892;16.746;2024-01-30T04:47:15;100776.60;;;2.29;57.23
37200;BME280;23096;50.892;16.746;2024-01-30T04:49:41;100777.69;;;2.25;57.19
37200;BME280;23096;50.892;16.746;2024-01-30T04:52:07;100785.30;;;2.24;57.26
37200;BME280;23096;50.892;16.746;2024-01-30T04:54:34;100777.48;;;2.24;57.16
37200;BME280;23096;50.892;16.746;2024-01-30T04:57:00;100773.73;;;2.23;57.16
37200;BME280;23096;50.892;16.746;2024-01-30T04:59:25;100776.27;;;2.23;57.16
37200;BME280;23096;50.892;16.746;2024-01-30T05:01:51;100775.59;;;2.23;57.20
37200;BME280;23096;50.892;16.746;2024-01-30T05:04:16;100772.89;;;2.24;57.28
37200;BME280;23096;50.892;16.746;2024-01-30T05:06:42;100770.91;;;2.25;57.31
37200;BME280;23096;50.892;16.746;2024-01-30T05:09:11;100777.31;;;2.24;57.17
37200;BME280;23096;50.892;16.746;2024-01-30T05:11:40;100781.88;;;2.24;57.22
37200;BME280;23096;50.892;16.746;2024-01-30T05:14:07;100776.95;;;2.24;57.25
37200;BME280;23096;50.892;16.746;2024-01-30T05:16:34;100782.77;;;2.25;57.30
37200;BME280;23096;50.892;16.746;2024-01-30T05:19:00;100786.05;;;2.27;57.28
37200;BME280;23096;50.892;16.746;2024-01-30T05:21:27;100788.25;;;2.27;57.24
37200;BME280;23096;50.892;16.746;2024-01-30T05:23:52;100789.84;;;2.23;57.22
37200;BME280;23096;50.892;16.746;2024-01-30T05:26:18;100792.52;;;2.22;57.27
37200;BME280;23096;50.892;16.746;2024-01-30T05:28:43;100790.84;;;2.22;57.29
37200;BME280;23096;50.892;16.746;2024-01-30T05:31:13;100786.90;;;2.21;57.29
37200;BME280;23096;50.892;16.746;2024-01-30T05:33:39;100785.17;;;2.19;57.26
37200;BME280;23096;50.892;16.746;2024-01-30T05:36:06;100788.73;;;2.19;57.24
37200;BME280;23096;50.892;16.746;2024-01-30T05:38:32;100789.71;;;2.18;57.26
37200;BME280;23096;50.892;16.746;2024-01-30T05:40:57;100794.80;;;2.18;57.40
37200;BME280;23096;50.892;16.746;2024-01-30T05:43:24;100798.74;;;2.20;57.35
37200;BME280;23096;50.892;16.746;2024-01-30T05:45:50;100799.79;;;2.21;57.38
37200;BME280;23096;50.892;16.746;2024-01-30T05:48:16;100797.27;;;2.22;57.28
37200;BME280;23096;50.892;16.746;2024-01-30T05:50:42;100795.25;;;2.23;57.17
37200;BME280;23096;50.892;16.746;2024-01-30T05:53:08;100791.84;;;2.22;57.13
37200;BME280;23096;50.892;16.746;2024-01-30T05:55:34;100790.28;;;2.20;57.20
37200;BME280;23096;50.892;16.746;2024-01-30T05:57:59;100786.85;;;2.19;57.22
37200;BME280;23096;50.892;16.746;2024-01-30T06:00:25;100790.53;;;2.17;57.21
37200;BME280;23096;50.892;16.746;2024-01-30T06:02:50;100786.33;;;2.12;57.17
37200;BME280;23096;50.892;16.746;2024-01-30T06:05:16;100787.11;;;2.10;57.19
37200;BME280;23096;50.892;16.746;2024-01-30T06:07:42;100791.48;;;2.09;57.21
37200;BME280;23096;50.892;16.746;2024-01-30T06:10:08;100792.69;;;2.09;57.19
37200;BME280;23096;50.892;16.746;2024-01-30T06:12:34;100794.05;;;2.09;57.30
37200;BME280;23096;50.892;16.746;2024-01-30T06:15:00;100792.01;;;2.09;57.14
37200;BME280;23096;50.892;16.746;2024-01-30T06:17:26;100791.69;;;2.10;57.31
37200;BME280;23096;50.892;16.746;2024-01-30T06:19:52;100799.32;;;2.10;57.29
37200;BME280;23096;50.892;16.746;2024-01-30T06:22:17;100798.92;;;2.08;57.20
37200;BME280;23096;50.892;16.746;2024-01-30T06:24:43;100798.14;;;2.10;57.40
37200;BME280;23096;50.892;16.746;2024-01-30T06:27:10;100801.27;;;2.13;57.39
37200;BME280;23096;50.892;16.746;2024-01-30T06:29:36;100796.27;;;2.17;57.40
37200;BME280;23096;50.892;16.746;2024-01-30T06:32:02;100797.54;;;2.19;57.43
37200;BME280;23096;50.892;16.746;2024-01-30T06:34:27;100796.27;;;2.22;57.44
37200;BME280;23096;50.892;16.746;2024-01-30T06:36:53;100794.93;;;2.23;57.34
37200;BME280;23096;50.892;16.746;2024-01-30T06:39:19;100789.35;;;2.24;57.43
37200;BME280;23096;50.892;16.746;2024-01-30T06:41:45;100792.08;;;2.24;57.36
37200;BME280;23096;50.892;16.746;2024-01-30T06:44:12;100793.66;;;2.26;57.39
37200;BME280;23096;50.892;16.746;2024-01-30T06:46:38;100797.08;;;2.27;57.39
37200;BME280;23096;50.892;16.746;2024-01-30T06:49:04;100794.69;;;2.26;57.42
37200;BME280;23096;50.892;16.746;2024-01-30T06:51:32;100794.16;;;2.26;57.47
37200;BME280;23096;50.892;16.746;2024-01-30T06:53:58;100792.81;;;2.26;57.48
37200;BME280;23096;50.892;16.746;2024-01-30T06:56:24;100787.23;;;2.27;57.36
37200;BME280;23096;50.892;16.746;2024-01-30T06:58:50;100784.41;;;2.29;57.41
37200;BME280;23096;50.892;16.746;2024-01-30T07:01:16;100789.05;;;2.31;57.52
37200;BME280;23096;50.892;16.746;2024-01-30T07:03:42;100794.85;;;2.33;57.47
37200;BME280;23096;50.892;16.746;2024-01-30T07:06:08;100788.98;;;2.36;57.62
37200;BME280;23096;50.892;16.746;2024-01-30T07:08:34;100790.68;;;2.36;57.35
37200;BME280;23096;50.892;16.746;2024-01-30T07:10:59;100798.58;;;2.33;57.39
37200;BME280;23096;50.892;16.746;2024-01-30T07:13:25;100798.66;;;2.29;57.42
37200;BME280;23096;50.892;16.746;2024-01-30T07:15:51;100798.52;;;2.30;57.50
37200;BME280;23096;50.892;16.746;2024-01-30T07:18:16;100793.52;;;2.33;57.64
37200;BME280;23096;50.892;16.746;2024-01-30T07:20:42;100794.27;;;2.37;57.67
37200;BME280;23096;50.892;16.746;2024-01-30T07:23:12;100793.63;;;2.38;57.71
37200;BME280;23096;50.892;16.746;2024-01-30T07:25:40;100794.21;;;2.35;57.62
37200;BME280;23096;50.892;16.746;2024-01-30T07:28:09;100794.42;;;2.29;57.43
37200;BME280;23096;50.892;16.746;2024-01-30T07:30:36;100798.10;;;2.28;57.56
37200;BME280;23096;50.892;16.746;2024-01-30T07:33:02;100795.56;;;2.28;57.62
37200;BME280;23096;50.892;16.746;2024-01-30T07:35:27;100796.10;;;2.29;57.65
37200;BME280;23096;50.892;16.746;2024-01-30T07:37:54;100795.95;;;2.30;57.62
37200;BME280;23096;50.892;16.746;2024-01-30T07:40:20;100798.89;;;2.32;57.73
37200;BME280;23096;50.892;16.746;2024-01-30T07:42:48;100803.90;;;2.36;57.87
37200;BME280;23096;50.892;16.746;2024-01-30T07:45:14;100798.46;;;2.41;57.97
37200;BME280;23096;50.892;16.746;2024-01-30T07:47:39;100794.02;;;2.47;58.04
37200;BME280;23096;50.892;16.746;2024-01-30T07:50:05;100795.13;;;2.51;57.76
37200;BME280;23096;50.892;16.746;2024-01-30T07:52:31;100792.68;;;2.54;57.97
37200;BME280;23096;50.892;16.746;2024-01-30T07:54:56;100791.10;;;2.59;58.02
37200;BME280;23096;50.892;16.746;2024-01-30T07:57:22;100794.61;;;2.64;58.02
37200;BME280;23096;50.892;16.746;2024-01-30T07:59:48;100795.43;;;2.69;58.08
37200;BME280;23096;50.892;16.746;2024-01-30T08:02:13;100793.83;;;2.73;58.14
37200;BME280;23096;50.892;16.746;2024-01-30T08:04:39;100793.95;;;2.78;58.02
37200;BME280;23096;50.892;16.746;2024-01-30T08:07:04;100795.00;;;2.79;58.07
37200;BME280;23096;50.892;16.746;2024-01-30T08:09:30;100798.45;;;2.82;58.19
37200;BME280;23096;50.892;16.746;2024-01-30T08:11:56;100796.48;;;2.85;58.17
37200;BME280;23096;50.892;16.746;2024-01-30T08:14:21;100794.54;;;2.88;58.14
37200;BME280;23096;50.892;16.746;2024-01-30T08:16:47;100796.84;;;2.93;58.19
37200;BME280;23096;50.892;16.746;2024-01-30T08:19:14;100800.11;;;2.94;58.08
37200;BME280;23096;50.892;16.746;2024-01-30T08:21:40;100796.96;;;2.98;58.20
37200;BME280;23096;50.892;16.746;2024-01-30T08:24:06;100795.06;;;3.03;58.27
37200;BME280;23096;50.892;16.746;2024-01-30T08:26:32;100797.43;;;3.10;58.42
37200;BME280;23096;50.892;16.746;2024-01-30T08:28:58;100794.31;;;3.15;58.38
37200;BME280;23096;50.892;16.746;2024-01-30T08:31:24;100795.17;;;3.23;58.52
37200;BME280;23096;50.892;16.746;2024-01-30T08:33:49;100796.90;;;3.33;58.59
37200;BME280;23096;50.892;16.746;2024-01-30T08:36:16;100796.48;;;3.44;58.59
37200;BME280;23096;50.892;16.746;2024-01-30T08:38:42;100796.01;;;3.53;58.65
37200;BME280;23096;50.892;16.746;2024-01-30T08:41:08;100790.05;;;3.61;58.52
37200;BME280;23096;50.892;16.746;2024-01-30T08:43:34;100793.29;;;3.69;58.83
37200;BME280;23096;50.892;16.746;2024-01-30T08:46:00;100790.52;;;3.84;59.03
37200;BME280;23096;50.892;16.746;2024-01-30T08:48:26;100789.63;;;3.99;58.92
37200;BME280;23096;50.892;16.746;2024-01-30T08:50:52;100786.08;;;4.09;58.78
37200;BME280;23096;50.892;16.746;2024-01-30T08:53:17;100784.52;;;4.17;58.78
37200;BME280;23096;50.892;16.746;2024-01-30T08:55:43;100785.48;;;4.23;58.73
37200;BME280;23096;50.892;16.746;2024-01-30T08:58:09;100788.45;;;4.27;58.95
37200;BME280;23096;50.892;16.746;2024-01-30T09:00:35;100789.59;;;4.33;58.83
37200;BME280;23096;50.892;16.746;2024-01-30T09:03:00;100791.23;;;4.39;58.85
37200;BME280;23096;50.892;16.746;2024-01-30T09:05:26;100789.98;;;4.46;58.87
37200;BME280;23096;50.892;16.746;2024-01-30T09:07:52;100789.73;;;4.51;58.86
37200;BME280;23096;50.892;16.746;2024-01-30T09:10:17;100792.92;;;4.58;58.84
37200;BME280;23096;50.892;16.746;2024-01-30T09:12:43;100792.52;;;4.66;58.84
37200;BME280;23096;50.892;16.746;2024-01-30T09:15:09;100789.95;;;4.73;58.78
37200;BME280;23096;50.892;16.746;2024-01-30T09:17:34;100791.62;;;4.82;58.70
37200;BME280;23096;50.892;16.746;2024-01-30T09:20:00;100789.84;;;4.88;58.60
37200;BME280;23096;50.892;16.746;2024-01-30T09:22:25;100789.28;;;4.96;58.52
37200;BME280;23096;50.892;16.746;2024-01-30T09:24:51;100788.21;;;5.04;58.34
37200;BME280;23096;50.892;16.746;2024-01-30T09:27:16;100786.81;;;5.13;58.17
37200;BME280;23096;50.892;16.746;2024-01-30T09:29:42;100788.83;;;5.23;58.02
37200;BME280;23096;50.892;16.746;2024-01-30T09:32:07;100789.80;;;5.31;57.93
37200;BME280;23096;50.892;16.746;2024-01-30T09:34:34;100787.31;;;5.37;57.90
37200;BME280;23096;50.892;16.746;2024-01-30T09:37:00;100784.02;;;5.45;57.82
37200;BME280;23096;50.892;16.746;2024-01-30T09:39:25;100784.81;;;5.53;57.59
37200;BME280;23096;50.892;16.746;2024-01-30T09:42:02;100780.67;;;5.62;57.50
37200;BME280;23096;50.892;16.746;2024-01-30T09:44:29;100774.63;;;5.70;57.20
37200;BME280;23096;50.892;16.746;2024-01-30T09:46:55;100775.92;;;5.77;57.03
37200;BME280;23096;50.892;16.746;2024-01-30T09:49:24;100774.77;;;5.81;56.90
37200;BME280;23096;50.892;16.746;2024-01-30T09:51:50;100778.74;;;5.86;56.85
37200;BME280;23096;50.892;16.746;2024-01-30T09:54:19;100776.97;;;5.93;56.64
37200;BME280;23096;50.892;16.746;2024-01-30T09:56:44;100769.03;;;5.99;56.48
37200;BME280;23096;50.892;16.746;2024-01-30T09:59:10;100768.38;;;6.02;56.28
37200;BME280;23096;50.892;16.746;2024-01-30T10:01:36;100772.67;;;6.04;56.11
37200;BME280;23096;50.892;16.746;2024-01-30T10:04:02;100767.58;;;6.07;56.03
37200;BME280;23096;50.892;16.746;2024-01-30T10:06:28;100764.54;;;6.10;55.93
37200;BME280;23096;50.892;16.746;2024-01-30T10:08:53;100755.17;;;6.11;55.79
37200;BME280;23096;50.892;16.746;2024-01-30T10:11:19;100753.48;;;6.12;55.95
37200;BME280;23096;50.892;16.746;2024-01-30T10:13:45;100751.27;;;6.14;55.79
37200;BME280;23096;50.892;16.746;2024-01-30T10:16:14;100750.95;;;6.15;55.89
37200;BME280;23096;50.892;16.746;2024-01-30T10:18:41;100749.09;;;6.17;55.84
37200;BME280;23096;50.892;16.746;2024-01-30T10:21:07;100748.45;;;6.21;55.86
37200;BME280;23096;50.892;16.746;2024-01-30T10:23:33;100740.33;;;6.29;55.80
37200;BME280;23096;50.892;16.746;2024-01-30T10:25:59;100736.13;;;6.36;55.81
37200;BME280;23096;50.892;16.746;2024-01-30T10:28:27;100737.70;;;6.41;55.85
37200;BME280;23096;50.892;16.746;2024-01-30T10:30:58;100732.11;;;6.45;55.75
37200;BME280;23096;50.892;16.746;2024-01-30T10:33:29;100731.83;;;6.51;55.70
37200;BME280;23096;50.892;16.746;2024-01-30T10:36:00;100730.67;;;6.58;55.65
37200;BME280;23096;50.892;16.746;2024-01-30T10:38:28;100730.04;;;6.63;55.44
37200;BME280;23096;50.892;16.746;2024-01-30T10:40:59;100726.48;;;6.66;55.56
37200;BME280;23096;50.892;16.746;2024-01-30T10:43:47;100726.36;;;6.74;55.32
37200;BME280;23096;50.892;16.746;2024-01-30T10:46:18;100720.95;;;6.81;55.20
37200;BME280;23096;50.892;16.746;2024-01-30T10:48:57;100719.97;;;6.88;55.07
37200;BME280;23096;50.892;16.746;2024-01-30T10:51:26;100714.04;;;6.96;55.09
37200;BME280;23096;50.892;16.746;2024-01-30T10:53:52;100714.27;;;7.05;54.85
37200;BME280;23096;50.892;16.746;2024-01-30T10:56:21;100715.34;;;7.12;54.56
37200;BME280;23096;50.892;16.746;2024-01-30T10:58:48;100716.05;;;7.17;54.50
37200;BME280;23096;50.892;16.746;2024-01-30T11:01:14;100714.55;;;7.22;54.42
37200;BME280;23096;50.892;16.746;2024-01-30T11:03:41;100708.92;;;7.25;54.33
37200;BME280;23096;50.892;16.746;2024-01-30T11:06:10;100706.88;;;7.30;54.18
37200;BME280;23096;50.892;16.746;2024-01-30T11:08:37;100710.33;;;7.35;54.15
37200;BME280;23096;50.892;16.746;2024-01-30T11:11:08;100704.53;;;7.39;53.88
37200;BME280;23096;50.892;16.746;2024-01-30T11:13:35;100699.23;;;7.42;53.63
37200;BME280;23096;50.892;16.746;2024-01-30T11:16:11;100695.50;;;7.46;53.77
37200;BME280;23096;50.892;16.746;2024-01-30T11:18:36;100690.56;;;7.52;53.65
37200;BME280;23096;50.892;16.746;2024-01-30T11:21:04;100691.09;;;7.55;53.75
37200;BME280;23096;50.892;16.746;2024-01-30T11:23:30;100686.31;;;7.59;53.49
37200;BME280;23096;50.892;16.746;2024-01-30T11:25:57;100682.39;;;7.63;53.31
37200;BME280;23096;50.892;16.746;2024-01-30T11:28:23;100680.17;;;7.68;53.09
37200;BME280;23096;50.892;16.746;2024-01-30T11:30:49;100679.86;;;7.71;53.01
37200;BME280;23096;50.892;16.746;2024-01-30T11:33:30;100674.05;;;7.77;53.15
37200;BME280;23096;50.892;16.746;2024-01-30T11:43:02;100669.96;;;7.95;52.83
37200;BME280;23096;50.892;16.746;2024-01-30T11:45:28;100667.07;;;7.99;52.66
37200;BME280;23096;50.892;16.746;2024-01-30T11:47:55;100661.77;;;8.02;52.61
37200;BME280;23096;50.892;16.746;2024-01-30T11:50:20;100660.92;;;8.10;52.59
37200;BME280;23096;50.892;16.746;2024-01-30T11:52:47;100658.36;;;8.15;52.48
37200;BME280;23096;50.892;16.746;2024-01-30T11:55:14;100660.59;;;8.19;52.38
37200;BME280;23096;50.892;16.746;2024-01-30T11:57:40;100658.87;;;8.23;52.33
37200;BME280;23096;50.892;16.746;2024-01-30T12:00:06;100658.69;;;8.28;52.28
37200;BME280;23096;50.892;16.746;2024-01-30T12:02:39;100652.71;;;8.32;52.22
37200;BME280;23096;50.892;16.746;2024-01-30T12:05:06;100649.64;;;8.35;52.02
37200;BME280;23096;50.892;16.746;2024-01-30T12:07:32;100649.11;;;8.39;52.01
37200;BME280;23096;50.892;16.746;2024-01-30T12:09:58;100646.05;;;8.44;52.06
37200;BME280;23096;50.892;16.746;2024-01-30T12:12:27;100644.67;;;8.50;52.05
37200;BME280;23096;50.892;16.746;2024-01-30T12:14:53;100644.85;;;8.56;51.96
37200;BME280;23096;50.892;16.746;2024-01-30T12:17:29;100643.30;;;8.60;51.91
37200;BME280;23096;50.892;16.746;2024-01-30T12:20:12;100641.58;;;8.62;51.82
37200;BME280;23096;50.892;16.746;2024-01-30T12:25:15;100630.09;;;8.73;51.69
37200;BME280;23096;50.892;16.746;2024-01-30T12:27:46;100626.13;;;8.76;51.65
37200;BME280;23096;50.892;16.746;2024-01-30T12:30:15;100625.61;;;8.79;51.56
37200;BME280;23096;50.892;16.746;2024-01-30T12:32:42;100625.77;;;8.84;51.49
37200;BME280;23096;50.892;16.746;2024-01-30T12:35:15;100620.80;;;8.88;51.36
37200;BME280;23096;50.892;16.746;2024-01-30T12:37:42;100617.35;;;8.91;51.24
37200;BME280;23096;50.892;16.746;2024-01-30T12:40:09;100613.40;;;8.94;51.19
37200;BME280;23096;50.892;16.746;2024-01-30T12:46:05;100603.59;;;9.04;51.03
37200;BME280;23096;50.892;16.746;2024-01-30T12:48:31;100598.60;;;9.07;51.03
37200;BME280;23096;50.892;16.746;2024-01-30T12:50:57;100596.38;;;9.09;50.97
37200;BME280;23096;50.892;16.746;2024-01-30T12:53:23;100593.79;;;9.11;50.88
37200;BME280;23096;50.892;16.746;2024-01-30T12:55:48;100596.35;;;9.15;50.78
37200;BME280;23096;50.892;16.746;2024-01-30T12:58:15;100589.99;;;9.18;50.65
37200;BME280;23096;50.892;16.746;2024-01-30T13:00:41;100589.30;;;9.19;50.61